Time;durP1;ratioP1;P1;durP2;ratioP2;P2;SDS_P1;SDS_P2;PMS_P1;PMS_P2;Temp;Humidity;BMP_temperature;BMP_pressure;BME280_temperature;BME280_humidity;BME280_pressure;Samples;Min_cycle;Max_cycle;Signal;HPM_P1;HPM_P2
2021/05/04 00:01:02;;;;;;;13.48;3.10;;;;;;;;;;143753;647;45022;-84
2021/05/04 00:03:38;;;;;;;14.38;3.12;;;;;;;;;;143752;566;45916;-84
2021/05/04 00:06:06;;;;;;;10.95;2.87;;;;;;;;;;143749;587;46020;-83
2021/05/04 00:08:32;;;;;;;21.55;3.15;;;;;;;;;;143749;593;47013;-83
2021/05/04 00:10:59;;;;;;;14.52;2.60;;;;;;;;;;143746;635;46020;-84
2021/05/04 00:13:26;;;;;;;19.40;4.62;;;;;;;;;;143746;604;46010;-83
2021/05/04 00:15:53;;;;;;;14.87;3.45;;;;;;;;;;143749;571;46021;-83
2021/05/04 00:18:21;;;;;;;31.05;3.58;;;;;;;;;;143750;615;46020;-83
2021/05/04 00:20:48;;;;;;;18.87;3.90;;;;;;;;;;143749;580;46022;-84
2021/05/04 00:23:17;;;;;;;12.73;3.25;;;;;;;;;;143745;634;46010;-81
2021/05/04 00:25:45;;;;;;;13.73;3.33;;;;;;;;;;143749;571;46020;-83
2021/05/04 00:28:12;;;;;;;14.35;3.45;;;;;;;;;;143751;565;46010;-82
2021/05/04 00:30:42;;;;;;;13.45;3.10;;;;;;;;;;143748;586;46023;-83
2021/05/04 00:33:08;;;;;;;10.27;3.12;;;;;;;;;;143745;587;48010;-83
2021/05/04 00:35:37;;;;;;;9.40;3.15;;;;;;;;;;143748;575;46020;-82
2021/05/04 00:38:07;;;;;;;11.98;2.85;;;;;;;;;;143748;603;46010;-83
2021/05/04 00:40:33;;;;;;;11.95;2.90;;;;;;;;;;143747;594;46020;-83
2021/05/04 00:43:02;;;;;;;16.35;3.92;;;;;;;;;;143747;656;46010;-82
2021/05/04 00:45:29;;;;;;;11.88;3.35;;;;;;;;;;143748;610;46021;-83
2021/05/04 00:48:06;;;;;;;14.40;3.67;;;;;;;;;;143749;571;46010;-83
2021/05/04 00:50:33;;;;;;;9.73;2.90;;;;;;;;;;143749;646;46014;-82
2021/05/04 00:53:00;;;;;;;20.30;3.00;;;;;;;;;;143746;605;46011;-83
2021/05/04 00:55:27;;;;;;;11.25;3.05;;;;;;;;;;143748;565;46020;-83
2021/05/04 00:57:56;;;;;;;8.00;2.85;;;;;;;;;;143749;577;46020;-83
2021/05/04 01:00:23;;;;;;;16.40;3.53;;;;;;;;;;143744;585;46022;-83
2021/05/04 01:02:54;;;;;;;7.97;3.03;;;;;;;;;;143746;596;46020;-82
2021/05/04 01:05:25;;;;;;;19.92;4.12;;;;;;;;;;143747;642;46020;-82
2021/05/04 01:07:52;;;;;;;15.98;4.35;;;;;;;;;;143748;652;46021;-83
2021/05/04 01:10:27;;;;;;;14.90;3.95;;;;;;;;;;143745;599;48020;-83
2021/05/04 01:12:54;;;;;;;8.30;2.72;;;;;;;;;;143747;600;46020;-84
2021/05/04 01:15:22;;;;;;;14.02;3.80;;;;;;;;;;143750;673;46021;-83
2021/05/04 01:17:49;;;;;;;22.33;3.28;;;;;;;;;;143748;599;46018;-83
2021/05/04 01:20:16;;;;;;;25.20;4.00;;;;;;;;;;143745;568;46022;-82
2021/05/04 01:22:43;;;;;;;21.77;3.65;;;;;;;;;;143746;583;46010;-84
2021/05/04 01:25:11;;;;;;;16.65;2.67;;;;;;;;;;143742;648;47020;-82
2021/05/04 01:27:38;;;;;;;22.95;4.80;;;;;;;;;;143748;571;46010;-83
2021/05/04 01:30:06;;;;;;;17.55;4.90;;;;;;;;;;143747;596;46022;-84
2021/05/04 01:32:34;;;;;;;16.70;3.15;;;;;;;;;;143746;619;46020;-84
2021/05/04 01:35:01;;;;;;;14.38;3.47;;;;;;;;;;143747;597;46020;-84
2021/05/04 01:37:27;;;;;;;17.67;3.00;;;;;;;;;;143749;667;46021;-84
2021/05/04 01:39:55;;;;;;;12.18;3.25;;;;;;;;;;143749;660;46023;-82
2021/05/04 01:42:22;;;;;;;19.70;3.83;;;;;;;;;;143746;563;46010;-82
2021/05/04 01:44:49;;;;;;;14.73;3.58;;;;;;;;;;143750;583;46013;-83
2021/05/04 01:47:16;;;;;;;15.07;3.10;;;;;;;;;;143749;583;46010;-82
2021/05/04 01:49:44;;;;;;;18.90;4.45;;;;;;;;;;143739;569;46022;-82
2021/05/04 01:52:11;;;;;;;14.73;4.57;;;;;;;;;;143747;651;46011;-84
2021/05/04 01:54:38;;;;;;;17.90;3.95;;;;;;;;;;143748;569;46020;-83
2021/05/04 01:57:06;;;;;;;13.57;3.78;;;;;;;;;;143748;613;46010;-83
2021/05/04 01:59:33;;;;;;;11.73;2.87;;;;;;;;;;143748;676;46022;-83
2021/05/04 02:01:59;;;;;;;9.18;2.70;;;;;;;;;;143745;599;46020;-83
2021/05/04 02:04:30;;;;;;;13.00;3.15;;;;;;;;;;143750;653;46020;-82
2021/05/04 02:06:57;;;;;;;13.93;3.05;;;;;;;;;;143750;601;46019;-83
2021/05/04 02:09:24;;;;;;;14.45;3.00;;;;;;;;;;143746;611;46023;-82
2021/05/04 02:11:51;;;;;;;14.45;2.67;;;;;;;;;;143748;564;46020;-82
2021/05/04 02:14:18;;;;;;;16.92;2.95;;;;;;;;;;143747;607;46021;-83
2021/05/04 02:16:44;;;;;;;10.93;2.58;;;;;;;;;;143749;656;46018;-83
2021/05/04 02:19:11;;;;;;;22.27;3.55;;;;;;;;;;143749;585;46022;-83
2021/05/04 02:21:40;;;;;;;10.13;3.15;;;;;;;;;;143747;592;46010;-84
2021/05/04 02:24:07;;;;;;;13.40;2.50;;;;;;;;;;143748;619;46020;-83
2021/05/04 02:26:34;;;;;;;20.85;3.45;;;;;;;;;;143749;613;46010;-83
2021/05/04 02:29:01;;;;;;;15.82;3.50;;;;;;;;;;143747;566;47022;-83
2021/05/04 02:31:27;;;;;;;17.40;2.90;;;;;;;;;;143746;565;46010;-82
2021/05/04 02:33:54;;;;;;;8.88;3.25;;;;;;;;;;143749;635;46020;-82
2021/05/04 02:36:22;;;;;;;11.35;3.35;;;;;;;;;;143750;626;46010;-83
2021/05/04 02:38:48;;;;;;;23.25;3.00;;;;;;;;;;143743;564;46019;-83
2021/05/04 02:41:16;;;;;;;7.10;2.78;;;;;;;;;;143748;737;46010;-82
2021/05/04 02:43:42;;;;;;;16.05;3.47;;;;;;;;;;143746;601;46021;-82
2021/05/04 02:46:09;;;;;;;17.20;3.08;;;;;;;;;;143751;574;46010;-82
2021/05/04 02:48:42;;;;;;;13.57;3.35;;;;;;;;;;143747;611;46051;-83
2021/05/04 02:51:09;;;;;;;;;;;;;;;;;;143750;976;46917;-82
2021/05/04 02:53:37;;;;;;;12.15;2.37;;;;;;;;;;143753;602;46021;-83
2021/05/04 02:56:05;;;;;;;12.37;2.17;;;;;;;;;;143748;595;46018;-82
2021/05/04 02:58:32;;;;;;;9.50;2.37;;;;;;;;;;143747;613;46015;-82
2021/05/04 03:00:59;;;;;;;11.93;3.03;;;;;;;;;;143747;631;46012;-83
2021/05/04 03:03:26;;;;;;;14.18;2.67;;;;;;;;;;143749;564;46033;-82
2021/05/04 03:05:56;;;;;;;10.75;3.20;;;;;;;;;;143749;672;46013;-84
2021/05/04 03:08:24;;;;;;;10.80;2.62;;;;;;;;;;143747;651;46023;-83
2021/05/04 03:10:51;;;;;;;8.63;2.70;;;;;;;;;;143747;730;46012;-83
2021/05/04 03:13:28;;;;;;;10.82;2.95;;;;;;;;;;143747;651;47020;-84
2021/05/04 03:15:55;;;;;;;13.90;3.08;;;;;;;;;;143748;614;46012;-81
2021/05/04 03:18:22;;;;;;;12.32;2.80;;;;;;;;;;143748;812;46020;-84
2021/05/04 03:20:52;;;;;;;17.10;3.90;;;;;;;;;;143746;738;46012;-83
2021/05/04 03:23:20;;;;;;;13.38;2.45;;;;;;;;;;143749;598;46020;-84
2021/05/04 03:25:47;;;;;;;8.80;2.42;;;;;;;;;;143747;611;46020;-82
2021/05/04 03:28:15;;;;;;;13.80;2.85;;;;;;;;;;143744;564;46022;-83
2021/05/04 03:30:44;;;;;;;8.27;2.95;;;;;;;;;;143745;622;46012;-82
2021/05/04 03:33:13;;;;;;;11.75;3.30;;;;;;;;;;143749;566;46020;-83
2021/05/04 03:35:40;;;;;;;12.98;3.20;;;;;;;;;;143749;570;46019;-81
2021/05/04 03:38:10;;;;;;;9.68;3.10;;;;;;;;;;143746;586;47023;-83
2021/05/04 03:40:36;;;;;;;10.73;2.72;;;;;;;;;;143747;569;46012;-83
2021/05/04 03:43:04;;;;;;;10.40;2.72;;;;;;;;;;143751;640;46020;-82
2021/05/04 03:45:31;;;;;;;11.88;2.83;;;;;;;;;;143750;651;46012;-83
2021/05/04 03:48:00;;;;;;;16.75;3.10;;;;;;;;;;143748;609;46022;-82
2021/05/04 03:50:29;;;;;;;17.35;4.25;;;;;;;;;;143748;621;46013;-83
2021/05/04 03:52:57;;;;;;;14.98;2.92;;;;;;;;;;143746;660;46021;-82
2021/05/04 03:55:24;;;;;;;9.40;2.60;;;;;;;;;;143749;643;46012;-82
2021/05/04 03:57:51;;;;;;;21.67;3.55;;;;;;;;;;143746;607;46022;-82
2021/05/04 04:00:19;;;;;;;15.75;2.80;;;;;;;;;;143747;571;46012;-83
2021/05/04 04:02:47;;;;;;;14.93;3.22;;;;;;;;;;143748;579;46020;-83
2021/05/04 04:05:15;;;;;;;14.25;2.42;;;;;;;;;;143749;620;46013;-82
2021/05/04 04:07:41;;;;;;;11.57;3.12;;;;;;;;;;143746;594;47023;-83
2021/05/04 04:10:09;;;;;;;7.57;2.97;;;;;;;;;;143746;583;47020;-82
2021/05/04 04:12:36;;;;;;;6.18;3.00;;;;;;;;;;143749;564;46020;-83
2021/05/04 04:15:03;;;;;;;12.43;2.65;;;;;;;;;;143750;652;46012;-82
2021/05/04 04:17:30;;;;;;;16.80;2.60;;;;;;;;;;143747;564;46020;-83
2021/05/04 04:19:56;;;;;;;14.02;3.00;;;;;;;;;;143747;661;46012;-82
2021/05/04 04:22:24;;;;;;;15.15;2.70;;;;;;;;;;143750;622;46021;-82
2021/05/04 04:24:55;;;;;;;14.95;3.08;;;;;;;;;;143748;611;46012;-83
2021/05/04 04:27:27;;;;;;;17.02;3.92;;;;;;;;;;143749;587;46020;-83
2021/05/04 04:29:57;;;;;;;13.85;3.60;;;;;;;;;;143746;566;46012;-83
2021/05/04 04:32:24;;;;;;;13.02;2.90;;;;;;;;;;143750;655;46014;-83
2021/05/04 04:34:52;;;;;;;21.70;3.30;;;;;;;;;;143748;568;46012;-84
2021/05/04 04:37:20;;;;;;;17.77;3.40;;;;;;;;;;143745;683;47023;-85
2021/05/04 04:39:49;;;;;;;13.35;3.15;;;;;;;;;;143744;577;46012;-84
2021/05/04 04:42:16;;;;;;;9.85;2.70;;;;;;;;;;143747;598;46043;-86
2021/05/04 04:44:43;;;;;;;9.73;3.58;;;;;;;;;;143750;605;45028;-83
2021/05/04 04:47:11;;;;;;;12.37;3.03;;;;;;;;;;143747;566;47022;-83
2021/05/04 04:49:39;;;;;;;17.23;3.67;;;;;;;;;;143746;713;46012;-83
2021/05/04 04:52:07;;;;;;;22.52;3.12;;;;;;;;;;143747;590;46021;-83
2021/05/04 04:54:35;;;;;;;16.77;2.87;;;;;;;;;;143748;623;46020;-83
2021/05/04 04:57:02;;;;;;;22.08;3.22;;;;;;;;;;143744;643;46913;-82
2021/05/04 04:59:32;;;;;;;15.40;3.33;;;;;;;;;;143744;595;46012;-81
2021/05/04 05:01:59;;;;;;;12.05;2.72;;;;;;;;;;143748;590;46020;-83
2021/05/04 05:04:26;;;;;;;15.73;3.70;;;;;;;;;;143749;642;46012;-82
2021/05/04 05:07:05;;;;;;;10.20;2.97;;;;;;;;;;143743;625;46021;-84
2021/05/04 05:09:35;;;;;;;14.38;2.75;;;;;;;;;;143746;615;46020;-84
2021/05/04 05:12:06;;;;;;;11.63;3.42;;;;;;;;;;143747;573;46020;-85
2021/05/04 05:14:40;;;;;;;12.85;3.12;;;;;;;;;;143747;578;47013;-84
2021/05/04 05:17:10;;;;;;;20.77;3.62;;;;;;;;;;143744;564;46044;-84
2021/05/04 05:19:59;;;;;;;53.55;6.47;;;;;;;;;;278837;65;414404;-86
2021/05/04 05:22:32;;;;;;;14.70;3.67;;;;;;;;;;143746;606;46021;-85
2021/05/04 05:25:14;;;;;;;20.77;6.32;;;;;;;;;;143748;655;46018;-86
2021/05/04 05:27:44;;;;;;;14.82;2.87;;;;;;;;;;143745;564;47022;-85
2021/05/04 05:30:19;;;;;;;13.57;3.50;;;;;;;;;;143745;587;46012;-86
2021/05/04 05:33:07;;;;;;;16.85;3.10;;;;;;;;;;143742;585;46020;-86
2021/05/04 05:35:34;;;;;;;12.63;3.78;;;;;;;;;;143747;626;47019;-86
2021/05/04 05:38:19;;;;;;;11.57;2.80;;;;;;;;;;143746;581;47023;-87
2021/05/04 05:41:19;;;;;;;11.60;2.72;;;;;;;;;;143749;597;45917;-82
2021/05/04 05:44:15;;;;;;;14.55;3.42;;;;;;;;;;143752;573;45021;-86
2021/05/04 05:46:50;;;;;;;20.27;3.25;;;;;;;;;;143747;604;46012;-86
2021/05/04 05:49:23;;;;;;;12.57;4.15;;;;;;;;;;143744;611;46022;-84
2021/05/04 05:51:51;;;;;;;14.52;2.58;;;;;;;;;;143743;576;46012;-86
2021/05/04 05:54:19;;;;;;;8.88;3.05;;;;;;;;;;143745;587;46020;-85
2021/05/04 05:56:48;;;;;;;16.62;3.10;;;;;;;;;;143748;616;46013;-85
2021/05/04 05:59:17;;;;;;;13.85;2.65;;;;;;;;;;143740;570;47023;-86
2021/05/04 06:01:44;;;;;;;10.85;2.95;;;;;;;;;;355344;65;4006553;-86
2021/05/04 06:04:12;;;;;;;9.10;2.40;;;;;;;;;;277999;65;46020;-85
2021/05/04 06:06:39;;;;;;;9.85;2.45;;;;;;;;;;143749;571;46013;-87
2021/05/04 06:09:07;;;;;;;15.68;3.00;;;;;;;;;;143745;648;46045;-86
2021/05/04 06:11:35;;;;;;;16.25;2.90;;;;;;;;;;143743;569;46012;-87
2021/05/04 06:14:05;;;;;;;8.32;2.60;;;;;;;;;;143746;569;46021;-87
2021/05/04 06:16:31;;;;;;;11.85;2.22;;;;;;;;;;143745;571;46020;-90
2021/05/04 06:18:59;;;;;;;12.55;2.25;;;;;;;;;;143744;569;46044;-89
2021/05/04 06:21:26;;;;;;;12.65;2.05;;;;;;;;;;143745;602;46012;-87
2021/05/04 06:23:54;;;;;;;13.13;2.33;;;;;;;;;;143747;569;46020;-90
2021/05/04 06:26:22;;;;;;;9.75;1.70;;;;;;;;;;143748;563;46020;-90
2021/05/04 06:28:50;;;;;;;14.98;2.55;;;;;;;;;;143745;573;47023;-87
2021/05/04 06:31:23;;;;;;;10.95;2.55;;;;;;;;;;143748;573;45914;-90
2021/05/04 06:33:52;;;;;;;9.60;2.35;;;;;;;;;;143747;648;46020;-90
2021/05/04 06:36:19;;;;;;;10.88;2.87;;;;;;;;;;143750;613;46021;-91
2021/05/04 06:38:59;;;;;;;11.50;2.00;;;;;;;;;;143747;650;46022;-93
2021/05/04 06:41:28;;;;;;;11.55;2.58;;;;;;;;;;143745;585;46020;-90
2021/05/04 06:44:07;;;;;;;11.65;2.50;;;;;;;;;;143744;642;48020;-89
2021/05/04 06:46:43;;;;;;;11.80;2.53;;;;;;;;;;143748;570;46012;-90
2021/05/04 06:49:39;;;;;;;10.85;3.10;;;;;;;;;;143741;575;47022;-91
2021/05/04 06:52:06;;;;;;;9.48;2.08;;;;;;;;;;143746;567;46012;-89
2021/05/04 06:54:36;;;;;;;7.95;2.30;;;;;;;;;;143747;569;46020;-90
2021/05/04 06:57:03;;;;;;;13.23;2.95;;;;;;;;;;143747;564;46013;-92
2021/05/04 06:59:32;;;;;;;11.77;1.90;;;;;;;;;;143746;577;46023;-89
2021/05/04 07:01:59;;;;;;;14.13;2.10;;;;;;;;;;143743;617;47012;-88
2021/05/04 07:04:26;;;;;;;8.90;2.55;;;;;;;;;;143750;578;45048;-92
2021/05/04 07:06:53;;;;;;;7.25;2.22;;;;;;;;;;143749;571;45029;-90
2021/05/04 07:09:19;;;;;;;6.75;2.12;;;;;;;;;;143746;610;47020;-92
2021/05/04 07:11:46;;;;;;;8.10;2.00;;;;;;;;;;143744;576;47915;-91
2021/05/04 07:14:28;;;;;;;13.43;2.37;;;;;;;;;;143744;646;46020;-91
2021/05/04 07:17:05;;;;;;;17.15;2.50;;;;;;;;;;143753;607;45020;-94
2021/05/04 07:19:37;;;;;;;9.02;2.60;;;;;;;;;;143744;565;46022;-87
2021/05/04 07:22:06;;;;;;;9.27;2.43;;;;;;;;;;143746;569;46012;-89
2021/05/04 07:24:33;;;;;;;11.35;2.97;;;;;;;;;;143748;588;46020;-88
2021/05/04 07:27:03;;;;;;;8.00;2.33;;;;;;;;;;143748;580;46018;-87
2021/05/04 07:29:30;;;;;;;10.73;2.78;;;;;;;;;;143744;619;47023;-87
2021/05/04 07:31:57;;;;;;;10.13;2.20;;;;;;;;;;143745;586;46020;-88
2021/05/04 07:34:30;;;;;;;12.13;2.72;;;;;;;;;;143749;644;46020;-87
2021/05/04 07:36:56;;;;;;;;;;;;;;;;;;143752;981;46020;-86
2021/05/04 07:39:24;;;;;;;14.48;3.15;;;;;;;;;;143749;635;46020;-85
2021/05/04 07:41:54;;;;;;;10.48;2.42;;;;;;;;;;143744;599;46010;-88
2021/05/04 07:44:22;;;;;;;11.15;2.65;;;;;;;;;;143746;580;46020;-88
2021/05/04 07:46:54;;;;;;;7.20;2.78;;;;;;;;;;143747;595;46010;-88
2021/05/04 07:49:29;;;;;;;13.05;3.05;;;;;;;;;;143745;569;47022;-87
2021/05/04 07:51:56;;;;;;;12.40;3.25;;;;;;;;;;143746;585;46010;-86
2021/05/04 07:54:24;;;;;;;20.40;4.35;;;;;;;;;;143744;612;46020;-87
2021/05/04 07:56:52;;;;;;;15.32;2.40;;;;;;;;;;143748;585;46010;-88
2021/05/04 07:59:21;;;;;;;10.15;2.65;;;;;;;;;;143746;613;46022;-88
2021/05/04 08:01:56;;;;;;;13.77;2.97;;;;;;;;;;143744;592;46010;-88
2021/05/04 08:04:23;;;;;;;14.02;3.58;;;;;;;;;;143745;578;46021;-88
2021/05/04 08:06:52;;;;;;;21.20;2.95;;;;;;;;;;143748;591;46010;-88
2021/05/04 08:09:19;;;;;;;7.35;2.30;;;;;;;;;;143744;563;46020;-87
2021/05/04 08:11:53;;;;;;;11.10;1.98;;;;;;;;;;143747;600;46011;-88
2021/05/04 08:14:24;;;;;;;9.27;2.60;;;;;;;;;;143746;638;46020;-87
2021/05/04 08:16:56;;;;;;;14.25;3.55;;;;;;;;;;143747;570;46010;-86
2021/05/04 08:19:33;;;;;;;;;;;;;;;;;;143750;981;46023;-88
2021/05/04 08:22:09;;;;;;;24.73;3.10;;;;;;;;;;143750;565;46012;-85
2021/05/04 08:24:37;;;;;;;16.27;3.08;;;;;;;;;;143745;590;46014;-86
2021/05/04 08:27:06;;;;;;;14.55;2.53;;;;;;;;;;143749;585;46018;-85
2021/05/04 08:29:35;;;;;;;9.88;2.55;;;;;;;;;;143743;604;47022;-87
2021/05/04 08:32:02;;;;;;;12.80;2.20;;;;;;;;;;143745;569;46012;-84
2021/05/04 08:34:33;;;;;;;11.55;2.80;;;;;;;;;;143745;626;47014;-86
2021/05/04 08:37:10;;;;;;;;;;;;;;;;;;;;;
2021/05/04 08:39:39;;;;;;;11.45;2.10;;;;;;;;;;143745;595;47024;-86
2021/05/04 08:42:07;;;;;;;13.73;2.53;;;;;;;;;;143743;564;46013;-85
2021/05/04 08:44:45;;;;;;;12.27;3.10;;;;;;;;;;143743;594;46020;-85
2021/05/04 08:47:13;;;;;;;10.68;2.45;;;;;;;;;;143747;594;46012;-86
2021/05/04 08:49:41;;;;;;;7.57;2.78;;;;;;;;;;143743;566;47023;-85
2021/05/04 08:52:14;;;;;;;12.27;3.92;;;;;;;;;;143743;585;46012;-86
2021/05/04 08:54:42;;;;;;;11.40;2.83;;;;;;;;;;143744;603;46014;-86
2021/05/04 08:57:09;;;;;;;9.95;2.85;;;;;;;;;;143749;564;46012;-85
2021/05/04 08:59:38;;;;;;;12.70;2.58;;;;;;;;;;143744;579;47022;-85
2021/05/04 09:02:06;;;;;;;11.05;3.12;;;;;;;;;;143745;599;46012;-85
2021/05/04 09:04:52;;;;;;;20.90;2.87;;;;;;;;;;143747;597;46021;-86
2021/05/04 09:07:30;;;;;;;11.52;2.65;;;;;;;;;;143748;569;46012;-85
2021/05/04 09:13:10;;;;;;;14.00;3.25;;;;;;;;;;143743;592;46917;-85
2021/05/04 09:21:40;;;;;;;12.37;3.25;;;;;;;;;;143743;572;46024;-87
2021/05/04 09:24:39;;;;;;;11.30;3.00;;;;;;;;;;143744;597;46012;-86
2021/05/04 09:27:14;;;;;;;15.25;3.10;;;;;;;;;;143747;593;46021;-86
2021/05/04 09:29:52;;;;;;;13.13;2.70;;;;;;;;;;143747;571;46020;-84
2021/05/04 09:32:29;;;;;;;9.40;2.00;;;;;;;;;;143745;614;46047;-86
2021/05/04 09:35:17;;;;;;;12.00;2.85;;;;;;;;;;143747;600;46012;-89
2021/05/04 09:37:44;;;;;;;10.73;3.62;;;;;;;;;;143745;589;47020;-86
2021/05/04 09:40:31;;;;;;;7.78;2.28;;;;;;;;;;143747;571;46019;-86
2021/05/04 09:43:25;;;;;;;8.50;2.55;;;;;;;;;;143746;577;47023;-86
2021/05/04 09:46:15;;;;;;;14.02;2.30;;;;;;;;;;143745;667;46020;-86
2021/05/04 09:48:43;;;;;;;15.00;3.53;;;;;;;;;;143743;565;46021;-86
2021/05/04 09:51:20;;;;;;;8.90;2.33;;;;;;;;;;143748;593;46012;-87
2021/05/04 09:54:00;;;;;;;19.30;3.90;;;;;;;;;;143747;582;46020;-86
2021/05/04 09:56:40;;;;;;;7.03;2.55;;;;;;;;;;143745;630;46012;-86
2021/05/04 09:59:17;;;;;;;12.88;3.50;;;;;;;;;;143746;618;46020;-89
2021/05/04 10:01:44;;;;;;;9.65;2.53;;;;;;;;;;143748;564;46012;-86
2021/05/04 10:04:12;;;;;;;14.45;2.03;;;;;;;;;;143745;650;46022;-87
2021/05/04 10:06:39;;;;;;;6.65;2.60;;;;;;;;;;143746;574;46012;-88
2021/05/04 10:09:11;;;;;;;9.55;2.40;;;;;;;;;;143748;576;46020;-88
2021/05/04 10:11:40;;;;;;;11.52;2.87;;;;;;;;;;143747;570;46013;-85
2021/05/04 10:14:15;;;;;;;13.93;2.47;;;;;;;;;;143742;614;47022;-88
2021/05/04 10:16:48;;;;;;;12.95;3.50;;;;;;;;;;143744;596;46012;-87
2021/05/04 10:19:21;;;;;;;8.57;2.65;;;;;;;;;;143746;609;46021;-86
2021/05/04 10:21:52;;;;;;;9.02;2.67;;;;;;;;;;143748;565;46012;-87
2021/05/04 10:24:22;;;;;;;9.50;3.53;;;;;;;;;;143747;644;46022;-87
2021/05/04 10:26:51;;;;;;;9.80;3.47;;;;;;;;;;143745;639;46012;-86
2021/05/04 10:29:23;;;;;;;10.02;2.78;;;;;;;;;;143746;660;46020;-87
2021/05/04 10:31:53;;;;;;;8.40;2.12;;;;;;;;;;143748;567;46013;-86
2021/05/04 10:34:34;;;;;;;7.95;3.60;;;;;;;;;;143743;582;47020;-87
2021/05/04 10:37:34;;;;;;;10.88;3.60;;;;;;;;;;143744;579;46020;-86
2021/05/04 10:40:20;;;;;;;17.35;3.35;;;;;;;;;;143745;648;46014;-85
2021/05/04 10:42:47;;;;;;;13.35;3.37;;;;;;;;;;143747;651;46020;-85
2021/05/04 10:45:17;;;;;;;13.23;3.25;;;;;;;;;;143745;578;47022;-87
2021/05/04 10:47:55;;;;;;;19.62;8.77;;;;;;;;;;143746;572;46013;-87
2021/05/04 10:50:57;;;;;;;7.90;4.55;;;;;;;;;;143747;647;46020;-86
2021/05/04 10:54:01;;;;;;;11.48;5.20;;;;;;;;;;143751;592;46020;-88
2021/05/04 10:57:02;;;;;;;9.32;3.50;;;;;;;;;;143748;664;45023;-88
2021/05/04 10:59:51;;;;;;;104.95;81.78;;;;;;;;;;143747;570;46012;-87
2021/05/04 11:02:30;;;;;;;38.47;28.42;;;;;;;;;;143746;600;46021;-87
2021/05/04 11:05:08;;;;;;;59.90;33.47;;;;;;;;;;143749;632;46012;-87
2021/05/04 11:07:58;;;;;;;247.40;189.32;;;;;;;;;;143743;605;47020;-86
2021/05/04 11:10:50;;;;;;;102.25;84.05;;;;;;;;;;143741;654;46012;-84
2021/05/04 11:13:59;;;;;;;9.45;4.97;;;;;;;;;;143751;588;45026;-87
2021/05/04 11:16:35;;;;;;;;;;;;;;;;;;143759;982;45021;-85
2021/05/04 11:19:12;;;;;;;16.50;3.45;;;;;;;;;;143753;611;46023;-87
2021/05/04 11:21:53;;;;;;;13.25;4.68;;;;;;;;;;143745;654;46010;-87
2021/05/04 11:24:35;;;;;;;12.82;3.45;;;;;;;;;;143746;565;46040;-87
2021/05/04 11:27:18;;;;;;;11.88;3.30;;;;;;;;;;143746;597;46010;-86
2021/05/04 11:29:45;;;;;;;;;;;;;;;;;;143748;955;47047;-87
2021/05/04 11:32:33;;;;;;;57.78;40.83;;;;;;;;;;143751;564;46021;-87
2021/05/04 11:35:14;;;;;;;149.80;118.32;;;;;;;;;;143745;654;46014;-86
2021/05/04 11:37:51;;;;;;;76.80;60.95;;;;;;;;;;143741;580;46012;-87
2021/05/04 11:40:27;;;;;;;46.80;37.22;;;;;;;;;;143742;624;46022;-87
2021/05/04 11:43:19;;;;;;;13.18;5.57;;;;;;;;;;143747;565;46012;-86
2021/05/04 11:45:59;;;;;;;19.60;8.73;;;;;;;;;;143748;647;46020;-87
2021/05/04 11:48:32;;;;;;;51.15;29.77;;;;;;;;;;143748;659;47020;-87
2021/05/04 11:51:00;;;;;;;49.50;34.42;;;;;;;;;;143744;589;47022;-86
2021/05/04 11:53:27;;;;;;;12.10;4.32;;;;;;;;;;143746;574;46012;-87
2021/05/04 11:55:56;;;;;;;9.00;2.33;;;;;;;;;;143749;567;46021;-86
2021/05/04 11:58:29;;;;;;;4.95;1.98;;;;;;;;;;143750;588;47018;-86
2021/05/04 12:01:05;;;;;;;10.20;3.30;;;;;;;;;;143745;568;46022;-87
2021/05/04 12:03:34;;;;;;;10.63;2.10;;;;;;;;;;143747;619;46012;-86
2021/05/04 12:06:06;;;;;;;5.78;2.00;;;;;;;;;;143749;655;46020;-87
2021/05/04 12:08:37;;;;;;;7.75;1.77;;;;;;;;;;143747;569;48012;-86
2021/05/04 12:11:07;;;;;;;12.13;2.65;;;;;;;;;;143746;569;47023;-87
2021/05/04 12:13:36;;;;;;;8.02;3.00;;;;;;;;;;143746;590;46012;-86
2021/05/04 12:16:06;;;;;;;8.43;2.72;;;;;;;;;;143747;671;46020;-86
2021/05/04 12:18:36;;;;;;;9.52;2.53;;;;;;;;;;143751;592;46012;-86
2021/05/04 12:21:09;;;;;;;7.35;2.05;;;;;;;;;;143745;580;46022;-85
2021/05/04 12:23:42;;;;;;;9.27;2.78;;;;;;;;;;143749;589;46015;-87
2021/05/04 12:26:19;;;;;;;8.45;2.45;;;;;;;;;;143742;580;46021;-86
2021/05/04 12:28:54;;;;;;;14.57;2.20;;;;;;;;;;143750;629;46018;-85
2021/05/04 12:31:36;;;;;;;11.75;2.62;;;;;;;;;;143746;662;46022;-86
2021/05/04 12:34:06;;;;;;;11.68;2.33;;;;;;;;;;143744;570;47918;-88
2021/05/04 12:36:55;;;;;;;6.95;2.60;;;;;;;;;;143747;605;46014;-88
2021/05/04 12:39:31;;;;;;;9.87;2.20;;;;;;;;;;143749;577;46013;-85
2021/05/04 12:42:19;;;;;;;11.80;2.47;;;;;;;;;;143746;586;46023;-87
2021/05/04 12:44:46;;;;;;;11.27;2.40;;;;;;;;;;143747;606;46020;-85
2021/05/04 12:47:18;;;;;;;7.85;2.33;;;;;;;;;;143745;570;46021;-87
2021/05/04 12:49:45;;;;;;;8.48;2.15;;;;;;;;;;143749;564;46049;-86
2021/05/04 12:52:15;;;;;;;9.20;2.72;;;;;;;;;;143746;637;46022;-86
2021/05/04 12:54:44;;;;;;;10.95;2.05;;;;;;;;;;143747;575;46044;-87
2021/05/04 12:57:26;;;;;;;7.95;2.67;;;;;;;;;;143749;577;46020;-88
2021/05/04 12:59:53;;;;;;;12.40;2.08;;;;;;;;;;143751;617;46012;-85
2021/05/04 13:02:33;;;;;;;6.90;2.00;;;;;;;;;;143745;608;47022;-86
2021/05/04 13:05:17;;;;;;;;;;;;;;;;;;;;;
2021/05/04 13:08:05;;;;;;;5.87;1.73;;;;;;;;;;143750;598;46014;-86
2021/05/04 13:14:11;;;;;;;6.25;2.33;;;;;;;;;;143748;574;46024;-86
2021/05/04 13:17:26;;;;;;;11.15;1.92;;;;;;;;;;143749;581;46012;-87
2021/05/04 13:20:24;;;;;;;6.55;1.80;;;;;;;;;;143750;612;46014;-86
2021/05/04 13:32:25;;;;;;;13.52;2.40;;;;;;;;;;143750;631;47021;-86
2021/05/04 13:35:01;;;;;;;11.23;2.58;;;;;;;;;;143750;585;46012;-86
2021/05/04 13:40:28;;;;;;;11.02;2.12;;;;;;;;;;143745;614;46021;-87
2021/05/04 13:48:31;;;;;;;5.65;1.90;;;;;;;;;;143747;587;46021;-84
2021/05/04 13:51:00;;;;;;;11.10;1.98;;;;;;;;;;143747;608;46012;-87
2021/05/04 13:53:30;;;;;;;13.85;2.28;;;;;;;;;;143748;582;46021;-87
2021/05/04 13:55:57;;;;;;;9.02;2.47;;;;;;;;;;143751;565;46021;-84
2021/05/04 13:58:28;;;;;;;7.85;2.28;;;;;;;;;;143747;571;46020;-83
2021/05/04 14:01:00;;;;;;;7.15;2.40;;;;;;;;;;143746;603;46012;-83
2021/05/04 14:28:40;;;;;;;4.82;1.92;;;;;;;;;;143750;626;46020;-86
2021/05/04 14:31:10;;;;;;;5.65;1.92;;;;;;;;;;143746;576;46022;-85
2021/05/04 14:33:40;;;;;;;11.73;2.05;;;;;;;;;;143746;631;46012;-88
2021/05/04 14:39:28;;;;;;;8.88;2.72;;;;;;;;;;143751;554;46012;-86
2021/05/04 15:01:52;;;;;;;6.50;1.90;;;;;;;;;;143748;590;46046;-85
2021/05/04 15:04:26;;;;;;;8.43;1.83;;;;;;;;;;143747;588;47022;-85
2021/05/04 15:07:01;;;;;;;11.30;2.83;;;;;;;;;;143747;590;46020;-85
2021/05/04 15:09:27;;;;;;;8.68;2.40;;;;;;;;;;143745;584;49021;-85
2021/05/04 15:11:54;;;;;;;9.32;2.00;;;;;;;;;;143748;586;46020;-85
2021/05/04 15:14:39;;;;;;;9.80;2.20;;;;;;;;;;143747;594;45038;-86
2021/05/04 15:17:16;;;;;;;6.62;2.00;;;;;;;;;;143746;637;47012;-87
2021/05/04 15:22:28;;;;;;;5.37;2.25;;;;;;;;;;143751;581;47019;-86
2021/05/04 15:24:55;;;;;;;4.55;2.03;;;;;;;;;;143746;579;46020;-86
2021/05/04 15:27:25;;;;;;;8.70;2.40;;;;;;;;;;143748;610;46012;-85
2021/05/04 15:29:52;;;;;;;9.95;1.98;;;;;;;;;;143745;582;48020;-86
2021/05/04 15:32:28;;;;;;;12.23;2.10;;;;;;;;;;143750;569;46012;-84
2021/05/04 15:35:05;;;;;;;8.68;2.08;;;;;;;;;;143744;610;46022;-84
2021/05/04 15:37:34;;;;;;;7.47;2.00;;;;;;;;;;143746;594;46013;-85
2021/05/04 15:40:02;;;;;;;6.00;1.83;;;;;;;;;;143747;625;47020;-83
2021/05/04 15:42:30;;;;;;;6.18;1.87;;;;;;;;;;143750;566;46012;-84
2021/05/04 15:45:00;;;;;;;12.45;1.90;;;;;;;;;;143747;627;47022;-84
2021/05/04 15:47:36;;;;;;;4.45;1.87;;;;;;;;;;703645;65;1397798;-83
2021/05/04 15:50:20;;;;;;;6.57;1.70;;;;;;;;;;478284;65;241140;-84
2021/05/04 15:53:04;;;;;;;5.15;1.87;;;;;;;;;;143750;698;46013;-83
2021/05/04 16:06:46;;;;;;;10.32;2.22;;;;;;;;;;143750;573;45910;-86
2021/05/04 16:09:18;;;;;;;8.07;1.98;;;;;;;;;;143747;592;46018;-84
2021/05/04 16:11:45;;;;;;;8.63;2.33;;;;;;;;;;143750;570;46020;-85
2021/05/04 16:14:17;;;;;;;5.97;2.30;;;;;;;;;;143749;605;46013;-85
2021/05/04 16:16:47;;;;;;;8.57;2.47;;;;;;;;;;143750;630;45025;-86
2021/05/04 16:19:18;;;;;;;11.55;2.65;;;;;;;;;;143744;565;47012;-84
2021/05/04 16:22:05;;;;;;;7.40;2.60;;;;;;;;;;143749;586;46020;-84
2021/05/04 16:24:55;;;;;;;4.40;1.87;;;;;;;;;;143750;648;46018;-84
2021/05/04 16:27:34;;;;;;;14.70;2.15;;;;;;;;;;143743;648;46022;-84
2021/05/04 16:30:11;;;;;;;4.80;2.22;;;;;;;;;;143748;587;46045;-83
2021/05/04 16:32:39;;;;;;;5.80;2.12;;;;;;;;;;143749;576;46020;-83
2021/05/04 16:35:07;;;;;;;4.35;1.95;;;;;;;;;;143750;631;46012;-84
2021/05/04 16:37:33;;;;;;;12.07;2.78;;;;;;;;;;143750;575;47022;-83